Time;durP1;ratioP1;P1;durP2;ratioP2;P2;SDS_P1;SDS_P2;PMS_P1;PMS_P2;Temp;Humidity;BMP_temperature;BMP_pressure;BME280_temperature;BME280_humidity;BME280_pressure;Samples;Min_cycle;Max_cycle;Signal;HPM_P1;HPM_P2
2022/07/21 00:01:31;;;;;;;;;;;28.20;37.90;;;;;;1540872;75;736;-64
2022/07/21 00:03:33;;;;;;;;;;;28.20;37.80;;;;;;1556543;75;668;-63
2022/07/21 00:05:35;;;;;;;;;;;28.20;37.80;;;;;;1550136;75;1119;-64
2022/07/21 00:07:37;;;;;;;;;;;28.20;37.80;;;;;;1544097;75;1496;-66
2022/07/21 00:09:39;;;;;;;;;;;28.20;37.80;;;;;;1543344;75;1947;-65
2022/07/21 00:11:40;;;;;;;;;;;28.20;37.80;;;;;;1548168;75;736;-64
2022/07/21 00:13:42;;;;;;;;;;;28.30;37.90;;;;;;1527749;75;674;-62
2022/07/21 00:15:44;;;;;;;;;;;28.30;37.80;;;;;;1538956;75;1142;-65
2022/07/21 00:17:46;;;;;;;;;;;28.30;37.80;;;;;;1547086;75;714;-66
2022/07/21 00:19:48;;;;;;;;;;;28.20;37.90;;;;;;1546758;75;755;-66
2022/07/21 00:21:50;;;;;;;;;;;28.20;37.90;;;;;;1538690;75;710;-67
2022/07/21 00:23:52;;;;;;;;;;;28.20;37.90;;;;;;1546828;75;713;-65
2022/07/21 00:25:54;;;;;;;;;;;28.20;37.90;;;;;;1546061;75;1176;-64
2022/07/21 00:27:55;;;;;;;;;;;28.20;37.90;;;;;;1544814;75;1923;-66
2022/07/21 00:29:57;;;;;;;;;;;28.20;38.00;;;;;;1543923;75;663;-64
2022/07/21 00:32:00;;;;;;;;;;;28.20;37.90;;;;;;1554641;75;691;-65
2022/07/21 00:34:02;;;;;;;;;;;28.20;37.90;;;;;;1551626;75;1490;-65
2022/07/21 00:36:04;;;;;;;;;;;28.20;37.90;;;;;;1547022;72;233330;-64
2022/07/21 00:38:06;;;;;;;;;;;28.30;38.10;;;;;;1561209;75;688;-64
2022/07/21 00:40:08;;;;;;;;;;;28.30;38.10;;;;;;1571835;74;634;-63
2022/07/21 00:42:11;;;;;;;;;;;28.30;38.00;;;;;;1565964;75;766;-64
2022/07/21 00:44:20;;;;;;;;;;;28.30;38.00;;;;;;1559136;74;1879;-63
2022/07/21 00:46:22;;;;;;;;;;;28.20;38.00;;;;;;1560822;74;1192;-66
2022/07/21 00:48:23;;;;;;;;;;;28.30;38.10;;;;;;1562352;75;2061;-63
2022/07/21 00:50:25;;;;;;;;;;;28.20;38.10;;;;;;1566828;74;699;-65
2022/07/21 00:52:27;;;;;;;;;;;28.30;38.00;;;;;;1565639;74;714;-64
2022/07/21 00:54:29;;;;;;;;;;;28.20;38.00;;;;;;1555368;75;660;-66
2022/07/21 00:56:31;;;;;;;;;;;28.30;38.10;;;;;;1569343;74;1127;-65
2022/07/21 00:58:33;;;;;;;;;;;28.20;38.10;;;;;;1562260;74;615;-65
2022/07/21 01:00:35;;;;;;;;;;;28.20;38.10;;;;;;1562423;74;588;-64
2022/07/21 01:02:37;;;;;;;;;;;28.20;38.10;;;;;;1560004;74;1564;-64
2022/07/21 01:04:39;;;;;;;;;;;28.20;38.20;;;;;;1553890;75;705;-65
2022/07/21 01:06:41;;;;;;;;;;;28.30;38.20;;;;;;1561050;74;1107;-61
2022/07/21 01:08:42;;;;;;;;;;;28.30;38.20;;;;;;1561643;75;1934;-64
2022/07/21 01:10:44;;;;;;;;;;;28.20;38.30;;;;;;1575545;73;712;-65
2022/07/21 01:12:46;;;;;;;;;;;28.20;38.40;;;;;;1585939;73;732;-63
2022/07/21 01:14:48;;;;;;;;;;;28.30;38.20;;;;;;1585733;73;723;-65
2022/07/21 01:16:50;;;;;;;;;;;28.30;38.40;;;;;;1546902;74;1591;-65
2022/07/21 01:18:52;;;;;;;;;;;28.20;38.30;;;;;;1541487;75;735;-66
2022/07/21 01:20:54;;;;;;;;;;;28.30;38.20;;;;;;1553269;75;655;-66
2022/07/21 01:22:56;;;;;;;;;;;28.30;38.30;;;;;;1549095;75;720;-65
2022/07/21 01:24:58;;;;;;;;;;;28.30;38.40;;;;;;1560087;75;807;-64
2022/07/21 01:27:00;;;;;;;;;;;28.30;38.50;;;;;;1599061;73;1162;-64
2022/07/21 01:29:02;;;;;;;;;;;28.30;38.40;;;;;;1573994;74;1941;-64
2022/07/21 01:31:04;;;;;;;;;;;28.30;38.40;;;;;;1557517;75;1605;-63
2022/07/21 01:33:06;;;;;;;;;;;28.30;38.30;;;;;;1557672;74;658;-64
2022/07/21 01:35:08;;;;;;;;;;;28.30;38.40;;;;;;1553788;74;1136;-64
2022/07/21 01:37:10;;;;;;;;;;;28.20;38.40;;;;;;1545443;75;785;-64
2022/07/21 01:41:33;;;;;;;;;;;28.30;38.40;;;;;;1546503;75;1634;-63
2022/07/21 01:43:35;;;;;;;;;;;28.30;38.40;;;;;;1556220;75;788;-64
2022/07/21 01:45:36;;;;;;;;;;;28.20;38.40;;;;;;1549467;75;1614;-64
2022/07/21 01:47:40;;;;;;;;;;;28.30;38.50;;;;;;1559963;74;684;-65
2022/07/21 01:49:42;;;;;;;;;;;28.20;38.40;;;;;;1602128;73;1910;-61
2022/07/21 01:51:44;;;;;;;;;;;28.20;38.50;;;;;;1594744;73;758;-61
2022/07/21 01:53:46;;;;;;;;;;;28.20;38.60;;;;;;1590058;73;724;-64
2022/07/21 01:55:48;;;;;;;;;;;28.20;38.60;;;;;;1565665;74;1123;-64
2022/07/21 01:57:49;;;;;;;;;;;28.30;38.60;;;;;;1570489;74;818;-64
2022/07/21 01:59:51;;;;;;;;;;;28.20;38.60;;;;;;1560595;75;1710;-64
2022/07/21 02:01:53;;;;;;;;;;;28.20;38.60;;;;;;1557074;75;726;-64
2022/07/21 02:03:56;;;;;;;;;;;28.20;38.70;;;;;;1562813;74;616;-64
2022/07/21 02:06:02;;;;;;;;;;;28.20;38.70;;;;;;1550466;75;1072;-62
2022/07/21 02:08:04;;;;;;;;;;;28.20;38.70;;;;;;1570965;75;1032;-62
2022/07/21 02:10:06;;;;;;;;;;;28.20;38.70;;;;;;1596321;73;1929;-64
2022/07/21 02:12:08;;;;;;;;;;;28.20;38.70;;;;;;1589905;73;706;-64
2022/07/21 02:14:10;;;;;;;;;;;28.20;38.80;;;;;;1571655;74;1655;-64
2022/07/21 02:16:12;;;;;;;;;;;28.10;38.80;;;;;;1549079;75;1146;-64
2022/07/21 02:18:13;;;;;;;;;;;28.10;38.80;;;;;;1541231;75;732;-64
2022/07/21 02:20:15;;;;;;;;;;;28.10;38.90;;;;;;1556708;75;682;-64
2022/07/21 02:22:17;;;;;;;;;;;28.10;38.90;;;;;;1561759;75;741;-64
2022/07/21 02:24:19;;;;;;;;;;;28.10;38.90;;;;;;1570706;74;683;-63
2022/07/21 02:26:21;;;;;;;;;;;28.10;38.90;;;;;;1549061;75;1157;-63
2022/07/21 02:28:23;;;;;;;;;;;28.10;38.90;;;;;;1563849;74;737;-70
2022/07/21 02:30:25;;;;;;;;;;;28.10;39.00;;;;;;1551058;74;1939;-66
2022/07/21 02:32:27;;;;;;;;;;;28.10;39.10;;;;;;1558747;74;704;-66
2022/07/21 02:34:28;;;;;;;;;;;28.10;39.20;;;;;;1565930;74;684;-65
2022/07/21 02:36:30;;;;;;;;;;;28.10;39.20;;;;;;1551485;74;1106;-65
2022/07/21 02:38:32;;;;;;;;;;;28.10;39.30;;;;;;1566120;75;773;-66
2022/07/21 02:40:34;;;;;;;;;;;28.10;39.30;;;;;;1571546;74;1446;-62
2022/07/21 02:42:37;;;;;;;;;;;28.10;39.30;;;;;;1574201;74;672;-67
2022/07/21 02:44:39;;;;;;;;;;;28.10;39.40;;;;;;1567419;74;693;-67
2022/07/21 02:46:41;;;;;;;;;;;28.10;39.40;;;;;;1566303;74;1111;-67
2022/07/21 02:48:43;;;;;;;;;;;28.10;39.50;;;;;;1566769;74;1942;-65
2022/07/21 02:50:45;;;;;;;;;;;28.10;39.60;;;;;;1580024;74;775;-66
2022/07/21 02:52:46;;;;;;;;;;;28.10;39.60;;;;;;1576117;74;687;-62
2022/07/21 02:54:48;;;;;;;;;;;28.10;39.60;;;;;;1581300;74;1583;-68
2022/07/21 02:56:50;;;;;;;;;;;28.10;39.70;;;;;;1585557;73;1097;-66
2022/07/21 02:58:52;;;;;;;;;;;28.10;39.70;;;;;;1579151;74;683;-68
2022/07/21 03:01:01;;;;;;;;;;;28.10;39.70;;;;;;1566614;74;747;-69
2022/07/21 03:03:03;;;;;;;;;;;28.10;39.90;;;;;;1576689;74;981;-69
2022/07/21 03:05:05;;;;;;;;;;;28.10;40.00;;;;;;1565719;74;1125;-66
2022/07/21 03:07:07;;;;;;;;;;;28.10;40.00;;;;;;1575117;74;670;-67
2022/07/21 03:09:09;;;;;;;;;;;28.10;40.00;;;;;;1575970;74;1938;-67
2022/07/21 03:11:11;;;;;;;;;;;28.10;40.20;;;;;;1574135;75;682;-67
2022/07/21 03:13:13;;;;;;;;;;;28.10;40.10;;;;;;1567941;74;750;-69
2022/07/21 03:15:15;;;;;;;;;;;28.10;40.10;;;;;;1585583;74;1130;-66
2022/07/21 03:17:17;;;;;;;;;;;28.10;40.20;;;;;;1578915;74;641;-67
2022/07/21 03:19:19;;;;;;;;;;;28.10;40.20;;;;;;1575968;75;818;-66
2022/07/21 03:21:20;;;;;;;;;;;28.10;40.20;;;;;;1580707;74;702;-67
2022/07/21 03:23:22;;;;;;;;;;;28.10;40.20;;;;;;1575950;74;1556;-65
2022/07/21 03:25:24;;;;;;;;;;;28.10;40.20;;;;;;1563858;74;1191;-64
2022/07/21 03:27:26;;;;;;;;;;;28.10;40.20;;;;;;1573634;74;722;-65
2022/07/21 03:29:28;;;;;;;;;;;28.10;40.20;;;;;;1589648;74;1927;-63
2022/07/21 03:31:30;;;;;;;;;;;28.20;40.30;;;;;;1570534;74;653;-64
2022/07/21 03:33:32;;;;;;;;;;;28.30;40.20;;;;;;1580574;74;675;-63
2022/07/21 03:35:35;;;;;;;;;;;28.10;40.20;;;;;;1574694;74;1127;-63
2022/07/21 03:37:42;;;;;;;;;;;28.20;40.20;;;;;;1576242;74;1228;-64
2022/07/21 03:39:44;;;;;;;;;;;28.20;40.20;;;;;;1575907;74;1037;-65
2022/07/21 03:41:46;;;;;;;;;;;28.20;40.20;;;;;;1577302;74;852;-63
2022/07/21 03:43:47;;;;;;;;;;;28.10;40.20;;;;;;1575674;74;763;-65
2022/07/21 03:45:49;;;;;;;;;;;28.20;40.10;;;;;;1569585;74;1152;-63
2022/07/21 03:47:51;;;;;;;;;;;28.20;40.20;;;;;;1586125;74;704;-64
2022/07/21 03:49:53;;;;;;;;;;;28.20;40.20;;;;;;1565029;74;1938;-65
2022/07/21 03:51:55;;;;;;;;;;;28.20;40.10;;;;;;1569513;74;1573;-64
2022/07/21 03:53:59;;;;;;;;;;;28.20;40.10;;;;;;1577770;74;677;-62
2022/07/21 03:56:00;;;;;;;;;;;28.20;40.10;;;;;;1562541;74;1177;-65
2022/07/21 03:58:04;;;;;;;;;;;28.20;40.20;;;;;;1583706;74;716;-65
2022/07/21 04:00:07;;;;;;;;;;;28.20;40.20;;;;;;1573150;75;772;-63
2022/07/21 04:02:09;;;;;;;;;;;28.20;40.20;;;;;;1567228;74;622;-65
2022/07/21 04:04:11;;;;;;;;;;;28.20;40.20;;;;;;1571364;74;716;-64
2022/07/21 04:06:12;;;;;;;;;;;28.30;40.30;;;;;;1572673;74;1609;-64
2022/07/21 04:08:14;;;;;;;;;;;28.20;40.20;;;;;;1575634;74;666;-62
2022/07/21 04:10:17;;;;;;;;;;;28.20;40.30;;;;;;1566798;74;1932;-65
2022/07/21 04:12:19;;;;;;;;;;;28.20;40.30;;;;;;1571926;74;631;-63
2022/07/21 04:14:21;;;;;;;;;;;28.20;40.20;;;;;;1572802;74;715;-64
2022/07/21 04:16:22;;;;;;;;;;;28.20;40.20;;;;;;1583323;74;1135;-65
2022/07/21 04:18:24;;;;;;;;;;;28.20;40.30;;;;;;1571656;74;626;-65
2022/07/21 04:20:26;;;;;;;;;;;28.30;40.30;;;;;;1572480;74;1625;-65
2022/07/21 04:22:28;;;;;;;;;;;28.20;40.40;;;;;;1577096;74;712;-66
2022/07/21 04:24:30;;;;;;;;;;;28.20;40.40;;;;;;1576335;74;537;-64
2022/07/21 04:26:32;;;;;;;;;;;28.30;40.50;;;;;;1565664;74;1184;-63
2022/07/21 04:28:34;;;;;;;;;;;28.20;40.40;;;;;;1581792;74;719;-63
2022/07/21 04:30:36;;;;;;;;;;;28.20;40.50;;;;;;1576462;74;1927;-65
2022/07/21 04:32:38;;;;;;;;;;;28.20;40.60;;;;;;1573539;74;626;-63
2022/07/21 04:34:39;;;;;;;;;;;28.20;40.60;;;;;;1566669;74;1535;-64
2022/07/21 04:36:41;;;;;;;;;;;28.20;40.60;;;;;;1570645;74;1140;-64
2022/07/21 04:38:43;;;;;;;;;;;28.20;40.70;;;;;;1575955;75;808;-64
2022/07/21 04:40:45;;;;;;;;;;;28.20;40.70;;;;;;1577347;74;733;-63
2022/07/21 04:42:47;;;;;;;;;;;28.20;40.70;;;;;;1574788;74;789;-59
2022/07/21 04:44:49;;;;;;;;;;;28.20;40.70;;;;;;1584453;74;703;-64
2022/07/21 04:46:51;;;;;;;;;;;28.20;40.70;;;;;;1574888;74;1135;-64
2022/07/21 04:48:53;;;;;;;;;;;28.20;40.80;;;;;;1581131;74;1744;-62
2022/07/21 04:50:55;;;;;;;;;;;28.20;40.80;;;;;;1571051;74;1933;-66
2022/07/21 04:52:58;;;;;;;;;;;28.20;40.70;;;;;;1570097;74;737;-63
2022/07/21 04:55:00;;;;;;;;;;;28.30;40.70;;;;;;1575257;74;790;-62
2022/07/21 04:57:03;;;;;;;;;;;28.30;40.70;;;;;;1578454;74;1162;-62
2022/07/21 04:59:05;;;;;;;;;;;28.30;40.70;;;;;;1575496;74;702;-64
2022/07/21 05:01:07;;;;;;;;;;;28.30;40.70;;;;;;1576300;74;1543;-67
2022/07/21 05:03:10;;;;;;;;;;;28.30;40.80;;;;;;1578951;74;737;-64
2022/07/21 05:05:12;;;;;;;;;;;28.30;40.80;;;;;;1576029;74;1132;-64
2022/07/21 05:07:14;;;;;;;;;;;28.20;41.00;;;;;;1582847;74;816;-64
2022/07/21 05:09:16;;;;;;;;;;;28.20;41.20;;;;;;1586236;74;706;-67
2022/07/21 05:11:18;;;;;;;;;;;28.20;41.20;;;;;;1575659;74;1934;-63
2022/07/21 05:13:20;;;;;;;;;;;28.20;41.20;;;;;;1575715;74;735;-63
2022/07/21 05:15:21;;;;;;;;;;;28.10;41.30;;;;;;1576434;74;1611;-63
2022/07/21 05:17:23;;;;;;;;;;;28.10;41.30;;;;;;1580975;74;696;-64
2022/07/21 05:19:25;;;;;;;;;;;28.10;41.30;;;;;;1569560;74;689;-64
2022/07/21 05:21:27;;;;;;;;;;;28.10;41.40;;;;;;1564323;74;659;-65
2022/07/21 05:23:29;;;;;;;;;;;28.00;41.50;;;;;;1573170;74;667;-64
2022/07/21 05:25:32;;;;;;;;;;;28.10;41.50;;;;;;1581918;73;1125;-62
2022/07/21 05:27:33;;;;;;;;;;;28.10;41.50;;;;;;1575605;74;703;-64
2022/07/21 05:29:35;;;;;;;;;;;28.10;41.50;;;;;;1581087;74;1466;-66
2022/07/21 05:31:37;;;;;;;;;;;28.10;41.80;;;;;;1575876;74;1912;-64
2022/07/21 05:33:39;;;;;;;;;;;28.10;41.80;;;;;;1564036;74;761;-63
2022/07/21 05:35:41;;;;;;;;;;;28.10;41.90;;;;;;1567812;74;1186;-64
2022/07/21 05:37:43;;;;;;;;;;;28.10;41.90;;;;;;1575132;74;672;-63
2022/07/21 05:39:45;;;;;;;;;;;28.10;41.90;;;;;;1573091;74;780;-63
2022/07/21 05:41:46;;;;;;;;;;;28.10;41.90;;;;;;1575103;74;703;-65
2022/07/21 05:43:48;;;;;;;;;;;28.10;41.90;;;;;;1573711;74;1600;-70
2022/07/21 05:45:50;;;;;;;;;;;28.00;42.00;;;;;;1571089;74;1155;-63
2022/07/21 05:47:52;;;;;;;;;;;28.10;42.00;;;;;;1583417;74;775;-63
2022/07/21 05:49:54;;;;;;;;;;;28.10;42.00;;;;;;1570666;74;1961;-63
2022/07/21 05:51:56;;;;;;;;;;;28.00;42.10;;;;;;1563610;74;718;-63
2022/07/21 05:53:58;;;;;;;;;;;28.00;42.00;;;;;;1566707;74;764;-64
2022/07/21 05:56:00;;;;;;;;;;;28.00;42.10;;;;;;1574425;74;1152;-63
2022/07/21 05:58:01;;;;;;;;;;;28.10;42.10;;;;;;1576263;74;1535;-66
2022/07/21 06:00:04;;;;;;;;;;;28.00;42.00;;;;;;1573784;74;760;-63
2022/07/21 06:02:06;;;;;;;;;;;28.00;42.10;;;;;;1572537;74;679;-63
2022/07/21 06:04:07;;;;;;;;;;;28.00;42.10;;;;;;1567007;74;665;-63
2022/07/21 06:06:10;;;;;;;;;;;28.00;42.10;;;;;;1564374;74;1138;-63
2022/07/21 06:08:11;;;;;;;;;;;28.00;42.10;;;;;;1572083;74;732;-63
2022/07/21 06:10:13;;;;;;;;;;;28.00;42.10;;;;;;1576682;74;1945;-63
2022/07/21 06:12:15;;;;;;;;;;;28.00;42.10;;;;;;1575327;74;1579;-64
2022/07/21 06:14:17;;;;;;;;;;;28.00;42.10;;;;;;1579846;74;895;-64
2022/07/21 06:16:19;;;;;;;;;;;28.00;42.20;;;;;;1573903;74;1134;-66
2022/07/21 06:18:21;;;;;;;;;;;28.00;42.30;;;;;;1570990;74;873;-63
2022/07/21 06:20:23;;;;;;;;;;;28.00;42.30;;;;;;1557346;74;682;-67
2022/07/21 06:22:25;;;;;;;;;;;28.00;42.30;;;;;;1557687;75;686;-66
2022/07/21 06:24:27;;;;;;;;;;;28.00;42.30;;;;;;1566619;74;738;-66
2022/07/21 06:26:29;;;;;;;;;;;28.00;42.40;;;;;;1559699;74;1541;-67
2022/07/21 06:28:30;;;;;;;;;;;28.00;42.30;;;;;;1561218;74;696;-64
2022/07/21 06:30:32;;;;;;;;;;;28.00;42.40;;;;;;1572451;74;1922;-67
2022/07/21 06:32:34;;;;;;;;;;;28.00;42.50;;;;;;1562887;74;664;-69
2022/07/21 06:34:36;;;;;;;;;;;28.00;42.50;;;;;;1568364;74;737;-66
2022/07/21 06:36:38;;;;;;;;;;;28.00;42.60;;;;;;1589570;70;225258;-54
2022/07/21 06:38:40;;;;;;;;;;;28.00;42.50;;;;;;1623126;71;676;-54
2022/07/21 06:40:42;;;;;;;;;;;28.00;42.60;;;;;;1627898;71;1460;-53
2022/07/21 06:42:43;;;;;;;;;;;28.00;42.60;;;;;;1626253;72;1186;-54
2022/07/21 06:44:45;;;;;;;;;;;28.00;42.60;;;;;;1618882;72;686;-52
2022/07/21 06:46:47;;;;;;;;;;;28.00;42.60;;;;;;1619531;73;704;-52
2022/07/21 06:48:49;;;;;;;;;;;28.00;42.60;;;;;;1619709;73;661;-57
2022/07/21 06:50:51;;;;;;;;;;;28.00;42.80;;;;;;1618419;73;1946;-57
2022/07/21 06:52:53;;;;;;;;;;;28.00;42.70;;;;;;1617428;73;1144;-56
2022/07/21 06:54:55;;;;;;;;;;;28.00;42.80;;;;;;1621217;73;1540;-55
2022/07/21 06:56:57;;;;;;;;;;;28.00;42.80;;;;;;1619560;71;673;-57
2022/07/21 06:58:59;;;;;;;;;;;28.00;42.80;;;;;;1611043;73;715;-56
2022/07/21 07:01:01;;;;;;;;;;;28.00;42.80;;;;;;1616455;73;660;-57
2022/07/21 07:03:02;;;;;;;;;;;28.00;42.90;;;;;;1621989;73;1107;-57
2022/07/21 07:05:05;;;;;;;;;;;28.00;42.90;;;;;;1620085;72;675;-57
2022/07/21 07:07:07;;;;;;;;;;;27.90;42.30;;;;;;1618933;72;683;-57
2022/07/21 07:09:09;;;;;;;;;;;28.00;42.90;;;;;;1617610;72;1507;-56
2022/07/21 07:11:10;;;;;;;;;;;28.00;43.00;;;;;;1616982;73;1937;-57
2022/07/21 07:13:13;;;;;;;;;;;28.00;43.00;;;;;;1617166;73;1097;-55
2022/07/21 07:15:15;;;;;;;;;;;28.00;43.10;;;;;;1623054;72;826;-56
2022/07/21 07:17:21;;;;;;;;;;;28.00;43.00;;;;;;1610822;73;934;-57
2022/07/21 07:19:21;;;;;;;;;;;28.00;43.10;;;;;;1617449;73;1794;-57
2022/07/21 07:21:22;;;;;;;;;;;28.00;43.10;;;;;;1615987;73;546;-55
2022/07/21 07:23:24;;;;;;;;;;;28.00;43.10;;;;;;1614895;72;1513;-55
2022/07/21 07:25:26;;;;;;;;;;;28.00;43.10;;;;;;1625945;73;728;-57
2022/07/21 07:27:28;;;;;;;;;;;27.90;42.50;;;;;;1616952;73;648;-54
2022/07/21 07:29:31;;;;;;;;;;;28.00;43.20;;;;;;1614549;73;654;-56
2022/07/21 07:31:33;;;;;;;;;;;27.90;42.60;;;;;;1630312;72;1920;-52
2022/07/21 07:33:35;;;;;;;;;;;28.00;43.30;;;;;;1622725;72;703;-56
2022/07/21 07:35:36;;;;;;;;;;;28.00;43.30;;;;;;1618715;73;663;-55
2022/07/21 07:37:39;;;;;;;;;;;27.90;42.60;;;;;;1623184;72;1531;-55
2022/07/21 07:39:41;;;;;;;;;;;27.90;42.60;;;;;;1624065;73;676;-52
2022/07/21 07:41:43;;;;;;;;;;;28.00;43.30;;;;;;1615263;73;1139;-54
2022/07/21 07:43:45;;;;;;;;;;;28.00;43.30;;;;;;1615882;73;732;-53
2022/07/21 07:45:47;;;;;;;;;;;27.90;42.60;;;;;;1625180;73;685;-55
2022/07/21 07:47:48;;;;;;;;;;;28.00;43.30;;;;;;1622121;73;684;-55
2022/07/21 07:49:52;;;;;;;;;;;28.00;43.30;;;;;;1626004;72;1366;-55
2022/07/21 07:51:54;;;;;;;;;;;27.90;42.60;;;;;;1620272;72;1901;-52
2022/07/21 07:53:56;;;;;;;;;;;28.00;43.30;;;;;;1621491;72;692;-55
2022/07/21 07:55:58;;;;;;;;;;;27.90;42.70;;;;;;1616489;72;719;-55
2022/07/21 07:58:00;;;;;;;;;;;27.80;42.70;;;;;;1615350;73;685;-54
2022/07/21 08:00:03;;;;;;;;;;;27.90;42.70;;;;;;1619231;73;662;-55
2022/07/21 08:02:05;;;;;;;;;;;28.00;43.30;;;;;;1624850;73;1127;-52
2022/07/21 08:04:07;;;;;;;;;;;27.90;42.70;;;;;;1619945;73;1436;-53
2022/07/21 08:06:09;;;;;;;;;;;27.90;42.70;;;;;;1621906;73;709;-55
2022/07/21 08:08:11;;;;;;;;;;;27.90;42.70;;;;;;1611489;73;686;-55
2022/07/21 08:10:13;;;;;;;;;;;28.00;43.30;;;;;;1622903;73;684;-55
2022/07/21 08:12:15;;;;;;;;;;;27.90;42.70;;;;;;1622109;73;1926;-56
2022/07/21 08:14:16;;;;;;;;;;;28.00;43.30;;;;;;1620259;73;755;-55
2022/07/21 08:16:18;;;;;;;;;;;28.00;43.30;;;;;;1623440;73;717;-55
2022/07/21 08:18:20;;;;;;;;;;;28.00;43.30;;;;;;1621539;72;1393;-56
2022/07/21 08:20:22;;;;;;;;;;;28.00;43.40;;;;;;1617463;73;683;-54
2022/07/21 08:22:24;;;;;;;;;;;28.00;43.30;;;;;;1612083;72;1144;-55
2022/07/21 08:24:26;;;;;;;;;;;28.00;43.30;;;;;;1619152;73;731;-55
2022/07/21 08:26:28;;;;;;;;;;;28.00;43.30;;;;;;1618405;71;682;-56
2022/07/21 08:28:29;;;;;;;;;;;28.00;43.30;;;;;;1621361;73;1030;-55
2022/07/21 08:30:31;;;;;;;;;;;28.00;43.30;;;;;;1632199;73;650;-57
2022/07/21 08:32:33;;;;;;;;;;;28.00;43.20;;;;;;1627546;72;1927;-58
2022/07/21 08:34:35;;;;;;;;;;;28.00;43.20;;;;;;1628567;73;738;-58
2022/07/21 08:36:37;;;;;;;;;;;27.90;42.60;;;;;;1625016;73;701;-56
2022/07/21 08:38:39;;;;;;;;;;;28.00;43.20;;;;;;1626051;72;762;-55
2022/07/21 08:40:42;;;;;;;;;;;28.00;43.20;;;;;;1629977;73;681;-57
2022/07/21 08:42:43;;;;;;;;;;;28.00;43.20;;;;;;1614049;72;1140;-57
2022/07/21 08:44:45;;;;;;;;;;;28.00;43.20;;;;;;1614345;73;675;-57
2022/07/21 08:46:49;;;;;;;;;;;27.90;42.60;;;;;;1628992;73;1463;-55
2022/07/21 08:48:51;;;;;;;;;;;28.00;43.10;;;;;;1617917;73;676;-57
2022/07/21 08:50:53;;;;;;;;;;;27.90;42.60;;;;;;1617966;73;741;-57
2022/07/21 08:52:54;;;;;;;;;;;28.00;43.10;;;;;;1628193;73;1931;-55
2022/07/21 08:54:56;;;;;;;;;;;28.00;43.20;;;;;;1620178;72;637;-52
2022/07/21 08:56:58;;;;;;;;;;;27.90;42.60;;;;;;1632055;73;693;-55
2022/07/21 08:59:02;;;;;;;;;;;28.00;43.30;;;;;;1625904;73;656;-55
2022/07/21 09:01:04;;;;;;;;;;;28.00;43.30;;;;;;1621177;72;1421;-53
2022/07/21 09:03:10;;;;;;;;;;;28.00;43.40;;;;;;1618036;73;1098;-54
2022/07/21 09:05:12;;;;;;;;;;;28.00;43.40;;;;;;1618574;73;701;-53
2022/07/21 09:07:14;;;;;;;;;;;28.00;43.40;;;;;;1625293;73;700;-52
2022/07/21 09:09:24;;;;;;;;;;;28.00;43.40;;;;;;1630550;73;662;-55
2022/07/21 09:11:24;;;;;;;;;;;28.00;43.40;;;;;;1626121;73;1919;-52
2022/07/21 09:13:26;;;;;;;;;;;28.00;43.50;;;;;;1611733;73;1022;-56
2022/07/21 09:15:28;;;;;;;;;;;28.00;43.60;;;;;;1620810;73;1552;-57
2022/07/21 09:17:30;;;;;;;;;;;28.00;43.60;;;;;;1615436;73;696;-57
2022/07/21 09:19:35;;;;;;;;;;;28.00;43.60;;;;;;1615766;73;589;-57
2022/07/21 09:21:37;;;;;;;;;;;28.00;43.60;;;;;;1614463;73;1107;-55
2022/07/21 09:23:38;;;;;;;;;;;27.90;43.00;;;;;;1616573;73;651;-57
2022/07/21 09:25:47;;;;;;;;;;;28.00;43.70;;;;;;1610424;73;676;-57
2022/07/21 09:27:49;;;;;;;;;;;27.90;43.10;;;;;;1615059;73;659;-55
2022/07/21 09:29:52;;;;;;;;;;;28.00;43.70;;;;;;1614013;72;1426;-53
2022/07/21 09:31:54;;;;;;;;;;;28.00;43.70;;;;;;1614847;73;1931;-51
2022/07/21 09:33:56;;;;;;;;;;;27.90;43.10;;;;;;1614208;72;668;-52
2022/07/21 09:36:03;;;;;;;;;;;27.90;43.20;;;;;;1613057;72;674;-53
2022/07/21 09:38:11;;;;;;;;;;;28.00;43.80;;;;;;1615324;72;764;-53
2022/07/21 09:40:14;;;;;;;;;;;28.00;43.80;;;;;;1617146;73;705;-55
2022/07/21 09:42:17;;;;;;;;;;;27.90;43.20;;;;;;1623182;72;1182;-52
2022/07/21 09:44:21;;;;;;;;;;;27.90;43.20;;;;;;1612104;73;1678;-52
2022/07/21 09:46:24;;;;;;;;;;;27.90;43.20;;;;;;1611546;73;1085;-52
2022/07/21 09:48:32;;;;;;;;;;;27.90;43.20;;;;;;1619547;73;699;-55
2022/07/21 09:50:34;;;;;;;;;;;28.00;43.90;;;;;;1621968;73;653;-54
2022/07/21 09:52:36;;;;;;;;;;;28.00;43.90;;;;;;1622120;73;1943;-54
2022/07/21 09:54:38;;;;;;;;;;;27.90;43.20;;;;;;1625980;73;665;-55
2022/07/21 09:56:41;;;;;;;;;;;27.90;43.20;;;;;;1583216;74;1521;-53
2022/07/21 09:58:42;;;;;;;;;;;27.90;43.30;;;;;;1619176;73;691;-54
2022/07/21 10:00:44;;;;;;;;;;;28.00;43.90;;;;;;1615006;73;686;-56
2022/07/21 10:02:46;;;;;;;;;;;27.90;43.20;;;;;;1618450;73;1215;-51
2022/07/21 10:05:07;;;;;;;;;;;28.00;43.90;;;;;;1617718;73;668;-52
2022/07/21 10:07:09;;;;;;;;;;;27.90;43.30;;;;;;1613785;73;762;-57
2022/07/21 10:09:11;;;;;;;;;;;28.00;43.90;;;;;;1620999;73;681;-56
2022/07/21 10:11:13;;;;;;;;;;;28.00;44.00;;;;;;1622157;73;1459;-53
2022/07/21 10:13:15;;;;;;;;;;;27.90;43.40;;;;;;1625739;73;1935;-55
2022/07/21 10:15:17;;;;;;;;;;;27.90;43.40;;;;;;1619762;73;677;-52
2022/07/21 10:17:19;;;;;;;;;;;27.90;43.40;;;;;;1625627;73;734;-54
2022/07/21 10:19:22;;;;;;;;;;;27.90;43.40;;;;;;1617014;73;707;-54
2022/07/21 10:21:26;;;;;;;;;;;28.00;44.10;;;;;;1618320;73;694;-53
2022/07/21 10:23:42;;;;;;;;;;;27.90;43.40;;;;;;1622154;73;1071;-52
2022/07/21 10:25:45;;;;;;;;;;;27.90;43.40;;;;;;1614451;73;1613;-56
2022/07/21 10:28:05;;;;;;;;;;;28.00;44.10;;;;;;1611677;72;679;-57
2022/07/21 10:30:08;;;;;;;;;;;28.00;44.10;;;;;;1615934;73;731;-53
2022/07/21 10:32:11;;;;;;;;;;;27.90;43.40;;;;;;1613190;73;1899;-52
2022/07/21 10:34:13;;;;;;;;;;;27.90;43.50;;;;;;1618459;73;687;-52
2022/07/21 10:36:34;;;;;;;;;;;27.90;43.50;;;;;;1618584;73;696;-53
2022/07/21 10:38:36;;;;;;;;;;;28.00;44.00;;;;;;1610365;73;1440;-52
2022/07/21 10:40:38;;;;;;;;;;;27.90;43.40;;;;;;1613059;73;897;-54
2022/07/21 10:42:40;;;;;;;;;;;27.90;43.40;;;;;;1615707;73;1144;-54
2022/07/21 10:44:43;;;;;;;;;;;27.90;43.50;;;;;;1612518;73;710;-54
2022/07/21 10:46:45;;;;;;;;;;;27.90;43.40;;;;;;1622057;73;692;-54
2022/07/21 10:48:47;;;;;;;;;;;27.90;43.40;;;;;;1590254;74;1196;-54
2022/07/21 10:50:50;;;;;;;;;;;27.90;43.40;;;;;;1620510;72;686;-57
2022/07/21 10:52:54;;;;;;;;;;;27.90;43.50;;;;;;1577218;74;1933;-52
2022/07/21 10:55:12;;;;;;;;;;;28.00;44.20;;;;;;1615906;73;1009;-52
2022/07/21 10:57:26;;;;;;;;;;;27.90;43.60;;;;;;1620001;73;693;-51
2022/07/21 10:59:29;;;;;;;;;;;28.00;44.20;;;;;;1621559;73;672;-52
2022/07/21 11:01:32;;;;;;;;;;;27.90;43.70;;;;;;1585099;74;1092;-56
2022/07/21 11:03:35;;;;;;;;;;;27.90;43.70;;;;;;1630043;73;1025;-55
2022/07/21 11:05:37;;;;;;;;;;;28.00;44.30;;;;;;1625415;73;842;-52
2022/07/21 11:07:56;;;;;;;;;;;28.00;44.30;;;;;;1619956;73;1521;-54
2022/07/21 11:10:18;;;;;;;;;;;28.00;44.30;;;;;;1611274;73;749;-53
2022/07/21 11:12:19;;;;;;;;;;;27.90;43.80;;;;;;1611435;73;1937;-52
2022/07/21 11:14:21;;;;;;;;;;;27.90;43.80;;;;;;1616443;73;678;-52
2022/07/21 11:16:23;;;;;;;;;;;27.90;43.80;;;;;;1583970;73;1142;-56
2022/07/21 11:18:26;;;;;;;;;;;27.90;43.90;;;;;;1618300;72;663;-57
2022/07/21 11:20:28;;;;;;;;;;;27.90;43.90;;;;;;1616435;72;692;-51
2022/07/21 11:22:30;;;;;;;;;;;27.90;43.90;;;;;;1611776;72;1503;-52
2022/07/21 11:24:32;;;;;;;;;;;27.90;43.90;;;;;;1626134;73;712;-54
2022/07/21 11:26:34;;;;;;;;;;;27.90;44.00;;;;;;1617163;72;799;-55
2022/07/21 11:28:36;;;;;;;;;;;27.90;43.90;;;;;;1622691;73;794;-55
2022/07/21 11:30:38;;;;;;;;;;;27.90;44.00;;;;;;1612648;73;714;-54
2022/07/21 11:32:40;;;;;;;;;;;27.90;44.20;;;;;;1612260;73;1951;-57
2022/07/21 11:34:43;;;;;;;;;;;27.90;44.20;;;;;;1589471;74;1020;-51
2022/07/21 11:36:45;;;;;;;;;;;27.80;44.20;;;;;;1620557;72;1655;-53
2022/07/21 11:38:59;;;;;;;;;;;27.80;44.20;;;;;;1625005;73;789;-52
2022/07/21 11:41:14;;;;;;;;;;;27.80;44.20;;;;;;1618822;73;698;-51
2022/07/21 11:43:16;;;;;;;;;;;27.80;44.20;;;;;;1610640;73;1194;-54
2022/07/21 11:45:18;;;;;;;;;;;27.90;44.20;;;;;;1618017;73;654;-52
2022/07/21 11:47:25;;;;;;;;;;;27.80;44.30;;;;;;1620097;73;656;-51
2022/07/21 11:49:24;;;;;;;;;;;27.80;44.30;;;;;;1611306;72;1501;-56
2022/07/21 11:51:26;;;;;;;;;;;27.80;44.40;;;;;;1619384;73;665;-54
2022/07/21 11:53:28;;;;;;;;;;;27.80;44.40;;;;;;1626311;73;1945;-57
2022/07/21 11:55:30;;;;;;;;;;;27.80;44.40;;;;;;1622381;72;676;-55
2022/07/21 11:57:32;;;;;;;;;;;27.80;44.40;;;;;;1611084;73;740;-54
2022/07/21 11:59:34;;;;;;;;;;;27.80;44.40;;;;;;1613662;73;665;-55
2022/07/21 12:01:37;;;;;;;;;;;27.80;44.50;;;;;;1618246;73;1140;-54
2022/07/21 12:03:49;;;;;;;;;;;27.80;44.50;;;;;;1613631;72;1591;-52
2022/07/21 12:05:51;;;;;;;;;;;27.80;44.60;;;;;;1613555;73;684;-55
2022/07/21 12:07:53;;;;;;;;;;;27.80;44.50;;;;;;1627036;73;628;-54
2022/07/21 12:09:59;;;;;;;;;;;27.80;44.40;;;;;;1630330;72;703;-54
2022/07/21 12:12:01;;;;;;;;;;;27.80;44.50;;;;;;1614216;73;1143;-56
2022/07/21 12:14:03;;;;;;;;;;;27.80;44.60;;;;;;1621987;73;1887;-53